createdAt,value
2018-12-31T00:00:37.901Z,9.20
2018-12-31T00:03:06.824Z,9.80
2018-12-31T00:05:35.284Z,9.13
2018-12-31T00:08:03.849Z,9.67
2018-12-31T00:10:32.382Z,9.40
2018-12-31T00:13:00.940Z,9.13
2018-12-31T00:15:29.397Z,9.33
2018-12-31T00:17:57.961Z,10.33
2018-12-31T00:20:26.492Z,9.70
2018-12-31T00:22:55.023Z,9.90
2018-12-31T00:25:23.841Z,10.10
2018-12-31T00:27:52.380Z,9.23
2018-12-31T00:30:21.240Z,9.83
2018-12-31T00:32:49.772Z,9.50
2018-12-31T00:35:18.333Z,10.20
2018-12-31T00:37:46.875Z,10.70
2018-12-31T00:40:15.432Z,9.80
2018-12-31T00:42:43.896Z,10.33
2018-12-31T00:45:12.384Z,10.50
2018-12-31T00:47:40.849Z,10.80
2018-12-31T00:50:09.341Z,10.57
2018-12-31T00:52:37.800Z,11.47
2018-12-31T00:55:06.281Z,10.20
2018-12-31T00:57:34.740Z,10.93
2018-12-31T01:00:03.227Z,10.27
2018-12-31T01:02:31.689Z,9.87
2018-12-31T01:05:00.275Z,10.60
2018-12-31T01:07:29.152Z,11.83
2018-12-31T01:09:57.716Z,10.37
2018-12-31T01:12:26.528Z,10.23
2018-12-31T01:14:55.085Z,11.60
2018-12-31T01:17:23.554Z,10.80
2018-12-31T01:19:52.112Z,11.53
2018-12-31T01:22:20.986Z,10.70
2018-12-31T01:24:49.544Z,10.67
2018-12-31T01:27:18.004Z,11.40
2018-12-31T01:29:46.488Z,10.93
2018-12-31T01:32:15.304Z,10.57
2018-12-31T01:34:43.872Z,11.97
2018-12-31T01:37:12.399Z,16.33
2018-12-31T01:39:40.892Z,15.10
2018-12-31T01:42:09.432Z,11.10
2018-12-31T01:44:37.965Z,11.83
2018-12-31T01:47:06.925Z,11.60
2018-12-31T01:49:35.460Z,11.77
2018-12-31T01:52:04.024Z,11.07
2018-12-31T01:54:32.559Z,11.13
2018-12-31T01:57:01.440Z,11.47
2018-12-31T01:59:29.980Z,10.63
2018-12-31T02:01:58.817Z,11.70
2018-12-31T02:04:27.355Z,11.13
2018-12-31T02:06:55.916Z,11.57
2018-12-31T02:09:24.452Z,10.80
2018-12-31T02:11:53.009Z,10.97
2018-12-31T02:14:21.469Z,9.60
2018-12-31T02:16:50.029Z,9.90
2018-12-31T02:19:18.564Z,10.87
2018-12-31T02:21:47.129Z,10.73
2018-12-31T02:24:15.588Z,10.50
2018-12-31T02:26:44.155Z,10.70
2018-12-31T02:29:12.688Z,10.20
2018-12-31T02:31:41.249Z,11.13
2018-12-31T02:34:09.792Z,10.87
2018-12-31T02:36:38.348Z,10.50
2018-12-31T02:39:07.286Z,10.40
2018-12-31T02:41:35.840Z,10.40
2018-12-31T02:44:04.305Z,10.30
2018-12-31T02:46:32.787Z,10.37
2018-12-31T02:49:01.256Z,10.13
2018-12-31T02:51:29.820Z,11.30
2018-12-31T02:53:58.390Z,11.63
2018-12-31T02:56:26.948Z,10.20
2018-12-31T02:58:55.412Z,12.07
2018-12-31T03:01:23.905Z,10.60
2018-12-31T03:03:52.366Z,9.90
2018-12-31T03:06:20.940Z,10.40
2018-12-31T03:08:49.471Z,9.70
2018-12-31T03:11:18.040Z,9.60
2018-12-31T03:13:46.572Z,8.80
2018-12-31T03:16:15.132Z,8.87
2018-12-31T03:18:43.588Z,8.03
2018-12-31T03:21:12.460Z,8.30
2018-12-31T03:23:40.988Z,7.90
2018-12-31T03:26:09.476Z,8.17
2018-12-31T03:28:38.217Z,9.67
2018-12-31T03:31:07.011Z,9.07
2018-12-31T03:33:35.832Z,8.77
2018-12-31T03:36:04.690Z,8.40
2018-12-31T03:38:33.577Z,8.70
2018-12-31T03:41:02.117Z,8.47
2018-12-31T03:43:30.949Z,8.63
2018-12-31T03:45:59.486Z,8.70
2018-12-31T03:48:28.050Z,8.27
2018-12-31T03:50:56.592Z,8.43
2018-12-31T03:53:25.162Z,7.90
2018-12-31T03:55:53.696Z,8.60
2018-12-31T03:58:22.256Z,8.43
2018-12-31T04:00:51.137Z,8.47
2018-12-31T04:03:19.696Z,8.10
2018-12-31T04:05:48.152Z,8.40
2018-12-31T04:08:16.719Z,7.40
2018-12-31T04:10:45.248Z,8.00
2018-12-31T04:13:13.816Z,7.40
2018-12-31T04:15:42.341Z,7.83
2018-12-31T04:18:10.820Z,7.17
2018-12-31T04:20:39.286Z,7.53
2018-12-31T04:23:07.844Z,7.73
2018-12-31T04:25:37.296Z,7.30
2018-12-31T04:28:05.784Z,7.53
2018-12-31T04:30:34.318Z,7.00
2018-12-31T04:33:02.881Z,7.83
2018-12-31T04:35:31.427Z,7.00
2018-12-31T04:37:59.990Z,6.83
2018-12-31T04:40:28.516Z,7.90
2018-12-31T04:42:56.977Z,7.10
2018-12-31T04:45:25.539Z,7.23
2018-12-31T04:47:54.073Z,7.30
2018-12-31T04:50:22.623Z,6.83
2018-12-31T04:52:51.085Z,7.07
2018-12-31T04:55:19.570Z,6.90
2018-12-31T04:57:48.107Z,8.50
2018-12-31T05:00:16.666Z,6.70
2018-12-31T05:02:45.524Z,8.80
2018-12-31T05:05:14.157Z,8.20
2018-12-31T05:07:43.001Z,8.20
2018-12-31T05:10:11.557Z,8.73
2018-12-31T05:12:40.017Z,9.20
2018-12-31T05:15:08.577Z,9.00
2018-12-31T05:17:37.114Z,9.00
2018-12-31T05:20:06.041Z,9.70
2018-12-31T05:22:34.589Z,9.50
2018-12-31T05:25:03.149Z,9.67
2018-12-31T05:27:31.680Z,10.70
2018-12-31T05:30:00.319Z,9.53
2018-12-31T05:32:29.249Z,9.73
2018-12-31T05:34:57.745Z,10.10
2018-12-31T05:37:26.289Z,9.97
2018-12-31T05:39:54.845Z,10.63
2018-12-31T05:42:23.685Z,9.30
2018-12-31T05:44:52.680Z,9.90
2018-12-31T05:47:21.216Z,9.50
2018-12-31T05:49:49.778Z,9.23
2018-12-31T05:52:18.304Z,8.90
2018-12-31T05:54:46.792Z,9.20
2018-12-31T05:57:15.252Z,7.93
2018-12-31T05:59:43.812Z,8.47
2018-12-31T06:02:12.265Z,7.63
2018-12-31T06:04:40.756Z,37.30
2018-12-31T06:07:09.229Z,9.30
2018-12-31T06:09:37.760Z,8.20
2018-12-31T06:12:06.253Z,8.73
2018-12-31T06:14:34.790Z,8.03
2018-12-31T06:17:05.121Z,53.73
2018-12-31T06:19:33.545Z,11.20
2018-12-31T06:22:02.100Z,8.43
2018-12-31T06:24:30.632Z,7.90
2018-12-31T06:26:59.197Z,8.03
2018-12-31T06:29:28.104Z,7.90
2018-12-31T06:31:56.901Z,8.23
2018-12-31T06:34:25.437Z,7.80
2018-12-31T06:36:54.003Z,7.50
2018-12-31T06:39:22.540Z,7.70
2018-12-31T06:41:51.000Z,7.63
2018-12-31T06:44:19.552Z,6.60
2018-12-31T06:46:48.020Z,7.40
2018-12-31T06:49:16.648Z,7.10
2018-12-31T06:51:45.461Z,8.17
2018-12-31T06:54:14.008Z,6.67
2018-12-31T06:56:42.469Z,6.77
2018-12-31T06:59:11.020Z,6.53
2018-12-31T07:01:39.471Z,7.10
2018-12-31T07:04:07.962Z,7.40
2018-12-31T07:06:36.497Z,7.10
2018-12-31T07:09:06.392Z,6.53
2018-12-31T07:11:34.854Z,7.40
2018-12-31T07:14:03.407Z,7.37
2018-12-31T07:16:31.940Z,6.90
2018-12-31T07:19:00.799Z,7.13
2018-12-31T07:21:29.261Z,6.90
2018-12-31T07:23:58.077Z,6.60
2018-12-31T07:26:26.528Z,7.50
2018-12-31T07:28:55.015Z,7.93
2018-12-31T07:31:23.549Z,7.13
2018-12-31T07:33:52.305Z,7.90
2018-12-31T07:36:20.836Z,7.10
2018-12-31T07:38:49.395Z,8.07
2018-12-31T07:41:17.850Z,7.70
2018-12-31T07:43:46.342Z,7.87
2018-12-31T07:46:14.945Z,7.63
2018-12-31T07:48:43.530Z,8.07
2018-12-31T07:51:12.063Z,6.60
2018-12-31T07:53:40.621Z,7.20
2018-12-31T07:56:09.417Z,7.13
2018-12-31T07:58:37.953Z,7.43
2018-12-31T08:01:06.514Z,6.73
2018-12-31T08:03:35.049Z,7.37
2018-12-31T08:06:03.614Z,8.00
2018-12-31T08:08:32.149Z,6.70
2018-12-31T08:11:00.705Z,7.03
2018-12-31T08:13:29.240Z,7.17
2018-12-31T08:15:57.984Z,6.70
2018-12-31T08:18:26.513Z,6.23
2018-12-31T08:20:55.067Z,7.00
2018-12-31T08:23:23.535Z,7.00
2018-12-31T08:25:52.093Z,6.33
2018-12-31T08:28:20.702Z,6.43
2018-12-31T08:30:49.286Z,6.47
2018-12-31T08:33:18.132Z,6.40
2018-12-31T08:35:46.624Z,6.30
2018-12-31T08:38:15.153Z,6.00
2018-12-31T08:40:43.635Z,6.57
2018-12-31T08:43:12.101Z,8.40
2018-12-31T08:45:40.641Z,5.70
2018-12-31T08:48:09.200Z,6.30
2018-12-31T08:50:37.732Z,6.10
2018-12-31T08:53:06.292Z,8.00
2018-12-31T08:55:34.744Z,6.60
2018-12-31T08:58:03.232Z,7.00
2018-12-31T09:00:32.101Z,6.07
2018-12-31T09:03:00.667Z,6.50
2018-12-31T09:05:29.192Z,6.30
2018-12-31T09:07:57.684Z,6.67
2018-12-31T09:10:26.217Z,6.17
2018-12-31T09:12:54.773Z,5.60
2018-12-31T09:15:23.305Z,5.60
2018-12-31T09:17:51.860Z,6.00
2018-12-31T09:20:20.397Z,5.23
2018-12-31T09:22:48.956Z,5.10
2018-12-31T09:25:17.492Z,4.70
2018-12-31T09:27:46.057Z,4.67
2018-12-31T09:30:14.585Z,5.00
2018-12-31T09:32:43.505Z,4.47
2018-12-31T09:35:12.037Z,5.07
2018-12-31T09:37:40.597Z,5.00
2018-12-31T09:40:09.200Z,4.63
2018-12-31T09:42:37.764Z,4.87
2018-12-31T09:45:06.297Z,5.40
2018-12-31T09:47:34.975Z,4.97
2018-12-31T09:50:03.769Z,4.83
2018-12-31T09:52:32.437Z,5.10
2018-12-31T09:55:01.077Z,5.70
2018-12-31T09:57:29.633Z,5.50
2018-12-31T09:59:58.160Z,5.73
2018-12-31T10:02:26.717Z,5.27
2018-12-31T10:04:55.245Z,5.70
2018-12-31T10:07:23.780Z,5.47
2018-12-31T10:09:52.337Z,5.70
2018-12-31T10:12:24.220Z,5.63
2018-12-31T10:14:52.679Z,6.00
2018-12-31T10:17:21.208Z,6.43
2018-12-31T10:19:49.770Z,6.83
2018-12-31T10:22:18.228Z,7.63
2018-12-31T10:24:46.788Z,7.30
2018-12-31T10:27:15.620Z,7.33
2018-12-31T10:29:44.181Z,6.63
2018-12-31T10:32:12.704Z,7.50
2018-12-31T10:34:41.188Z,7.53
2018-12-31T10:37:09.719Z,7.90
2018-12-31T10:39:38.275Z,7.37
2018-12-31T10:42:07.126Z,7.70
2018-12-31T10:44:35.684Z,7.30
2018-12-31T10:47:04.143Z,6.83
2018-12-31T10:49:32.792Z,7.27
2018-12-31T10:52:01.339Z,6.70
2018-12-31T10:54:29.821Z,7.10
2018-12-31T10:56:58.361Z,7.40
2018-12-31T10:59:26.920Z,6.70
2018-12-31T11:01:55.457Z,6.80
2018-12-31T11:04:24.037Z,7.17
2018-12-31T11:06:52.865Z,7.17
2018-12-31T11:09:21.749Z,7.80
2018-12-31T11:11:50.284Z,6.70
2018-12-31T11:14:19.123Z,6.13
2018-12-31T11:16:47.652Z,6.27
2018-12-31T11:19:16.108Z,6.10
2018-12-31T11:21:44.592Z,6.50
2018-12-31T11:24:13.356Z,6.73
2018-12-31T11:26:42.484Z,6.60
2018-12-31T11:29:11.016Z,6.50
2018-12-31T11:31:39.581Z,7.20
2018-12-31T11:34:08.113Z,6.80
2018-12-31T11:36:36.673Z,7.53
2018-12-31T11:39:06.645Z,7.40
2018-12-31T11:41:35.200Z,6.27
2018-12-31T11:44:03.729Z,6.43
2018-12-31T11:46:32.207Z,6.13
2018-12-31T11:49:00.746Z,6.50
2018-12-31T11:51:29.297Z,6.67
2018-12-31T11:53:58.125Z,6.20
2018-12-31T11:56:26.605Z,7.40
2018-12-31T11:58:55.068Z,6.60
2018-12-31T12:01:23.798Z,6.83
2018-12-31T12:03:52.641Z,7.37
2018-12-31T12:06:21.202Z,6.77
2018-12-31T12:08:49.742Z,6.70
2018-12-31T12:11:18.296Z,6.27
2018-12-31T12:13:46.831Z,5.83
2018-12-31T12:16:15.373Z,6.10
2018-12-31T12:18:44.273Z,5.70
2018-12-31T12:21:13.137Z,6.17
2018-12-31T12:23:41.693Z,6.07
2018-12-31T12:26:10.229Z,5.63
2018-12-31T12:28:38.780Z,5.93
2018-12-31T12:31:07.317Z,5.97
2018-12-31T12:33:35.876Z,4.80
2018-12-31T12:36:05.049Z,5.70
2018-12-31T12:38:33.608Z,4.57
2018-12-31T12:41:02.136Z,4.50
2018-12-31T12:43:30.705Z,5.00
2018-12-31T12:45:59.233Z,5.03
2018-12-31T12:48:28.089Z,4.43
2018-12-31T12:50:56.688Z,5.83
2018-12-31T12:53:25.260Z,4.73
2018-12-31T12:55:53.785Z,5.20
2018-12-31T12:58:22.340Z,5.97
2018-12-31T13:00:51.067Z,5.43
2018-12-31T13:03:19.621Z,5.77
2018-12-31T13:05:48.161Z,5.57
2018-12-31T13:08:16.717Z,5.70
2018-12-31T13:10:45.249Z,5.63
2018-12-31T13:13:13.810Z,5.23
2018-12-31T13:15:42.693Z,5.67
2018-12-31T13:18:11.248Z,5.70
2018-12-31T13:20:39.772Z,6.33
2018-12-31T13:23:08.333Z,5.80
2018-12-31T13:25:36.869Z,6.50
2018-12-31T13:28:05.404Z,6.07
2018-12-31T13:30:34.007Z,6.83
2018-12-31T13:33:02.492Z,6.20
2018-12-31T13:35:31.056Z,6.33
2018-12-31T13:37:59.588Z,6.70
2018-12-31T13:40:28.143Z,5.83
2018-12-31T13:42:56.679Z,6.30
2018-12-31T13:45:25.237Z,7.50
2018-12-31T13:47:53.877Z,7.00
2018-12-31T13:50:22.437Z,7.67
2018-12-31T13:52:50.972Z,6.83
2018-12-31T13:55:19.533Z,6.70
2018-12-31T13:57:48.061Z,7.67
2018-12-31T14:00:16.898Z,7.67
2018-12-31T14:02:45.429Z,7.60
2018-12-31T14:05:13.989Z,7.50
2018-12-31T14:07:42.528Z,7.60
2018-12-31T14:10:11.080Z,8.20
2018-12-31T14:12:39.609Z,8.27
2018-12-31T14:15:08.241Z,7.63
2018-12-31T14:17:36.781Z,7.70
2018-12-31T14:20:06.384Z,7.60
2018-12-31T14:22:34.921Z,8.63
2018-12-31T14:25:03.548Z,7.90
2018-12-31T14:27:32.446Z,7.77
2018-12-31T14:30:01.003Z,8.67
2018-12-31T14:32:29.534Z,8.03
2018-12-31T14:34:58.069Z,8.00
2018-12-31T14:37:26.628Z,8.30
2018-12-31T14:39:55.165Z,7.67
2018-12-31T14:42:23.912Z,8.40
2018-12-31T14:44:52.452Z,8.03
2018-12-31T14:47:21.013Z,8.37
2018-12-31T14:49:49.544Z,8.60
2018-12-31T14:52:18.100Z,8.07
2018-12-31T14:54:46.941Z,8.83
2018-12-31T14:57:15.506Z,8.33
2018-12-31T14:59:44.060Z,7.70
2018-12-31T15:02:12.612Z,8.23
2018-12-31T15:04:41.144Z,8.63
2018-12-31T15:07:09.900Z,8.00
2018-12-31T15:09:38.433Z,8.37
2018-12-31T15:12:07.386Z,8.93
2018-12-31T15:14:36.252Z,9.10
2018-12-31T15:17:04.876Z,8.87
2018-12-31T15:19:33.417Z,8.93
2018-12-31T15:22:01.972Z,9.47
2018-12-31T15:24:30.503Z,8.73
2018-12-31T15:26:59.071Z,10.13
2018-12-31T15:29:27.608Z,9.10
2018-12-31T15:31:56.173Z,10.03
2018-12-31T15:34:25.041Z,9.70
2018-12-31T15:36:53.909Z,9.13
2018-12-31T15:39:22.448Z,10.40
2018-12-31T15:41:51.009Z,9.70
2018-12-31T15:44:19.543Z,9.70
2018-12-31T15:46:48.204Z,9.63
2018-12-31T15:49:16.748Z,9.13
2018-12-31T15:51:45.317Z,9.70
2018-12-31T15:54:13.848Z,10.80
2018-12-31T15:56:42.413Z,9.60
2018-12-31T15:59:11.144Z,10.47
2018-12-31T16:01:39.708Z,10.73
2018-12-31T16:04:08.556Z,23.37
2018-12-31T16:06:37.120Z,32.70
2018-12-31T16:09:07.125Z,10.37
2018-12-31T16:11:36.059Z,11.33
2018-12-31T16:14:04.699Z,10.63
2018-12-31T16:16:33.261Z,10.73
2018-12-31T16:19:01.798Z,10.30
2018-12-31T16:21:30.371Z,11.50
2018-12-31T16:23:59.372Z,11.30
2018-12-31T16:26:27.912Z,11.03
2018-12-31T16:28:56.481Z,11.73
2018-12-31T16:31:25.016Z,11.80
2018-12-31T16:33:53.897Z,10.97
2018-12-31T16:36:22.437Z,11.70
2018-12-31T16:38:50.999Z,12.70
2018-12-31T16:41:19.536Z,13.10
2018-12-31T16:43:48.129Z,13.20
2018-12-31T16:46:16.657Z,14.30
2018-12-31T16:48:45.505Z,14.90
2018-12-31T16:51:14.398Z,14.20
2018-12-31T16:53:42.966Z,41.27
2018-12-31T16:56:11.496Z,14.33
2018-12-31T16:58:40.324Z,15.37
2018-12-31T17:01:08.876Z,14.17
2018-12-31T17:03:37.824Z,14.17
2018-12-31T17:06:06.361Z,14.67
2018-12-31T17:08:34.929Z,15.00
2018-12-31T17:11:03.564Z,14.43
2018-12-31T17:13:32.135Z,14.10
2018-12-31T17:16:01.049Z,15.30
2018-12-31T17:18:29.612Z,15.70
2018-12-31T17:20:58.153Z,14.20
2018-12-31T17:23:26.715Z,15.40
2018-12-31T17:25:55.257Z,15.00
2018-12-31T17:28:23.767Z,14.73
2018-12-31T17:30:52.271Z,15.30
2018-12-31T17:33:20.838Z,15.90
2018-12-31T17:35:49.741Z,17.57
2018-12-31T17:38:18.289Z,84.57
2018-12-31T17:40:47.219Z,17.87
2018-12-31T17:43:15.757Z,18.13
2018-12-31T17:45:44.334Z,16.03
2018-12-31T17:48:12.870Z,17.10
2018-12-31T17:50:41.732Z,17.40
2018-12-31T17:53:10.277Z,18.07
2018-12-31T17:55:39.145Z,18.17
2018-12-31T17:58:07.685Z,18.77
2018-12-31T18:00:36.317Z,15.83
2018-12-31T18:03:04.932Z,16.93
2018-12-31T18:05:33.496Z,16.73
2018-12-31T18:08:02.048Z,16.20
2018-12-31T18:10:30.601Z,16.03
2018-12-31T18:12:59.140Z,16.70
2018-12-31T18:15:27.775Z,16.80
2018-12-31T18:17:56.241Z,15.73
2018-12-31T18:20:24.809Z,17.20
2018-12-31T18:22:53.353Z,17.17
2018-12-31T18:25:22.215Z,17.63
2018-12-31T18:27:50.759Z,17.67
2018-12-31T18:30:19.396Z,64.53
2018-12-31T18:32:47.932Z,18.00
2018-12-31T18:35:16.505Z,17.23
2018-12-31T18:37:45.042Z,19.73
2018-12-31T18:40:13.601Z,16.77
2018-12-31T18:42:42.136Z,16.10
2018-12-31T18:45:10.626Z,16.50
2018-12-31T18:47:39.461Z,15.83
2018-12-31T18:50:08.000Z,16.23
2018-12-31T18:52:36.568Z,16.27
2018-12-31T18:55:05.673Z,15.20
2018-12-31T18:57:34.521Z,15.53
2018-12-31T19:00:03.524Z,16.07
2018-12-31T19:02:32.089Z,15.87
2018-12-31T19:05:00.641Z,15.77
2018-12-31T19:07:29.197Z,16.93
2018-12-31T19:09:57.732Z,15.27
2018-12-31T19:12:26.292Z,15.47
2018-12-31T19:14:54.833Z,15.67
2018-12-31T19:17:23.397Z,15.10
2018-12-31T19:19:51.933Z,15.53
2018-12-31T19:22:20.501Z,14.63
2018-12-31T19:24:49.344Z,32.90
2018-12-31T19:27:18.108Z,15.17
2018-12-31T19:29:46.644Z,15.37
2018-12-31T19:32:15.208Z,17.90
2018-12-31T19:34:43.750Z,16.93
2018-12-31T19:37:12.317Z,18.07
2018-12-31T19:39:41.153Z,19.77
2018-12-31T19:42:09.721Z,17.63
2018-12-31T19:44:38.657Z,19.07
2018-12-31T19:47:07.224Z,20.43
2018-12-31T19:49:35.764Z,22.13
2018-12-31T19:52:04.698Z,22.37
2018-12-31T19:54:33.261Z,21.30
2018-12-31T19:57:01.792Z,21.00
2018-12-31T19:59:30.356Z,23.30
2018-12-31T20:01:58.902Z,20.23
2018-12-31T20:04:27.460Z,20.27
2018-12-31T20:07:01.226Z,19.10
2018-12-31T20:09:26.212Z,22.63
2018-12-31T20:11:55.102Z,21.13
2018-12-31T20:14:23.664Z,21.47
2018-12-31T20:16:52.300Z,24.97
2018-12-31T20:19:21.069Z,25.23
2018-12-31T20:21:49.600Z,25.23
2018-12-31T20:24:18.165Z,25.17
2018-12-31T20:26:46.700Z,69.20
2018-12-31T20:29:15.256Z,42.63
2018-12-31T20:31:43.796Z,36.00
2018-12-31T20:34:12.363Z,27.73
2018-12-31T20:36:40.897Z,23.10
2018-12-31T20:39:09.538Z,19.03
2018-12-31T20:41:38.432Z,18.53
2018-12-31T20:44:07.009Z,21.10
2018-12-31T20:46:35.885Z,17.10
2018-12-31T20:49:04.521Z,18.83
2018-12-31T20:51:33.052Z,18.50
2018-12-31T20:54:01.626Z,19.53
2018-12-31T20:56:30.161Z,23.63
2018-12-31T20:58:58.718Z,25.67
2018-12-31T21:01:27.921Z,24.57
2018-12-31T21:03:56.457Z,23.37
2018-12-31T21:06:25.029Z,22.10
2018-12-31T21:08:53.564Z,21.40
2018-12-31T21:11:22.137Z,22.07
2018-12-31T21:13:50.674Z,19.80
2018-12-31T21:16:19.609Z,20.43
2018-12-31T21:18:48.145Z,17.67
2018-12-31T21:21:16.807Z,18.37
2018-12-31T21:23:45.341Z,18.03
2018-12-31T21:26:13.908Z,18.50
2018-12-31T21:28:42.455Z,21.93
2018-12-31T21:31:11.021Z,42.83
2018-12-31T21:33:39.559Z,19.13
2018-12-31T21:36:08.129Z,21.60
2018-12-31T21:38:36.668Z,20.50
2018-12-31T21:41:05.670Z,21.77
2018-12-31T21:43:34.189Z,20.40
2018-12-31T21:46:02.736Z,19.23
2018-12-31T21:48:31.276Z,18.53
2018-12-31T21:51:00.105Z,19.73
2018-12-31T21:53:28.644Z,20.93
2018-12-31T21:55:57.204Z,22.20
2018-12-31T21:58:25.744Z,22.03
2018-12-31T22:00:54.381Z,21.90
2018-12-31T22:03:22.921Z,20.90
2018-12-31T22:05:51.792Z,22.77
2018-12-31T22:08:20.738Z,23.40
2018-12-31T22:10:49.301Z,20.50
2018-12-31T22:13:17.843Z,20.83
2018-12-31T22:15:46.401Z,19.50
2018-12-31T22:18:14.944Z,19.00
2018-12-31T22:20:43.504Z,20.80
2018-12-31T22:23:12.389Z,20.53
2018-12-31T22:25:41.309Z,21.00
2018-12-31T22:28:09.862Z,22.30
2018-12-31T22:30:38.753Z,26.20
2018-12-31T22:33:07.302Z,30.20
2018-12-31T22:35:35.859Z,25.83
2018-12-31T22:38:04.709Z,24.10
2018-12-31T22:40:33.286Z,47.67
2018-12-31T22:43:01.821Z,34.97
2018-12-31T22:45:30.381Z,27.43
2018-12-31T22:47:59.129Z,22.60
2018-12-31T22:50:27.688Z,24.50
2018-12-31T22:52:56.226Z,36.63
2018-12-31T22:55:24.796Z,68.67
2018-12-31T22:57:53.352Z,206.37
2018-12-31T23:00:24.104Z,95.87
2018-12-31T23:02:52.672Z,40.93
2018-12-31T23:05:21.488Z,260.70
2018-12-31T23:07:50.068Z,276.93
2018-12-31T23:10:18.601Z,245.20
2018-12-31T23:12:47.781Z,169.10
2018-12-31T23:15:17.468Z,153.53
2018-12-31T23:17:46.041Z,186.20
2018-12-31T23:20:15.618Z,201.23
2018-12-31T23:22:44.188Z,289.07
2018-12-31T23:25:13.032Z,319.03
2018-12-31T23:27:41.601Z,255.77
2018-12-31T23:30:10.516Z,210.97
2018-12-31T23:32:39.085Z,267.17
2018-12-31T23:35:08.837Z,167.93
2018-12-31T23:37:38.344Z,160.37
2018-12-31T23:40:09.132Z,184.27
2018-12-31T23:42:38.029Z,204.77
2018-12-31T23:45:09.409Z,146.90
2018-12-31T23:47:37.961Z,101.67
2018-12-31T23:50:08.968Z,89.40
2018-12-31T23:52:37.514Z,87.43
2018-12-31T23:55:07.124Z,69.47
2018-12-31T23:57:35.728Z,75.70
